createdAt,value
2023-03-05T12:44:27.022Z,2.98
2023-03-05T12:46:26.576Z,2.87
2023-03-05T12:48:18.536Z,2.75
2023-03-05T12:50:30.487Z,2.67
2023-03-05T12:52:25.638Z,2.61
2023-03-05T12:54:39.841Z,2.53
2023-03-05T12:56:33.340Z,2.45
2023-03-05T12:58:44.727Z,2.41
2023-03-05T13:00:43.614Z,2.31
2023-03-05T13:02:39.473Z,2.22
2023-03-05T13:04:33.483Z,2.10
2023-03-05T13:06:25.325Z,1.99
2023-03-05T13:08:31.861Z,1.90
2023-03-05T13:10:24.552Z,1.80
2023-03-05T13:12:17.281Z,1.75
2023-03-05T13:14:38.342Z,1.73
2023-03-05T13:16:38.270Z,1.69
2023-03-05T13:18:32.878Z,1.64
2023-03-05T13:20:31.476Z,1.59
2023-03-05T13:22:26.114Z,1.56
2023-03-05T13:24:19.579Z,1.50
2023-03-05T13:26:18.924Z,1.44
2023-03-05T13:28:16.503Z,1.37
2023-03-05T13:30:22.582Z,1.32
2023-03-05T13:32:26.163Z,1.28
2023-03-05T13:34:22.219Z,1.24
2023-03-05T13:36:15.302Z,1.20
2023-03-05T13:38:19.935Z,1.19
2023-03-05T13:40:16.016Z,1.18
2023-03-05T13:42:16.762Z,1.17
2023-03-05T13:44:21.017Z,1.18
2023-03-05T13:46:13.363Z,1.19
2023-03-05T13:48:07.041Z,1.20
2023-03-05T13:50:05.691Z,1.21
2023-03-05T13:52:00.451Z,1.20
2023-03-05T13:53:53.872Z,1.20
2023-03-05T13:55:54.646Z,1.19
2023-03-05T13:57:53.167Z,1.17
2023-03-05T13:59:52.642Z,1.20
2023-03-05T14:01:46.751Z,1.25
2023-03-05T14:03:38.604Z,1.30
2023-03-05T14:05:31.771Z,1.40
2023-03-05T14:07:28.862Z,1.52
2023-03-05T14:09:47.926Z,1.70
2023-03-05T14:11:39.279Z,2.05
2023-03-05T14:13:32.178Z,2.24
2023-03-05T14:15:32.396Z,2.39
2023-03-05T14:17:38.101Z,2.55
2023-03-05T14:19:38.164Z,2.66
2023-03-05T14:21:49.852Z,2.71
2023-03-05T14:23:44.161Z,2.76
2023-03-05T14:25:40.125Z,2.79
2023-03-05T14:27:34.767Z,2.79
2023-03-05T14:29:28.057Z,2.74
2023-03-05T14:31:20.521Z,2.68
2023-03-05T14:33:12.199Z,2.67
2023-03-05T14:35:05.959Z,2.67
2023-03-05T14:37:01.269Z,2.61
2023-03-05T14:38:54.134Z,2.54
2023-03-05T14:40:45.644Z,2.51
2023-03-05T14:42:50.185Z,2.46
2023-03-05T14:44:41.649Z,2.38
2023-03-05T14:46:33.720Z,2.30
2023-03-05T14:48:25.573Z,2.24
2023-03-05T14:50:23.110Z,2.19
2023-03-05T14:52:20.639Z,2.12
2023-03-05T14:54:24.044Z,2.07
2023-03-05T14:56:28.267Z,1.99
2023-03-05T14:58:22.742Z,1.98
2023-03-05T15:00:26.577Z,1.97
2023-03-05T15:02:20.872Z,1.93
2023-03-05T15:11:54.847Z,1.65
2023-03-05T15:13:46.475Z,1.59
2023-03-05T15:15:39.280Z,1.52
2023-03-05T15:19:53.160Z,1.50
2023-03-05T15:21:43.302Z,1.50
2023-03-05T15:23:37.417Z,1.48
2023-03-05T15:25:28.319Z,1.46
2023-03-05T15:27:18.491Z,1.46
2023-03-05T15:29:08.816Z,1.45
2023-03-05T15:31:00.409Z,1.43
2023-03-05T15:32:52.624Z,1.43
2023-03-05T15:34:42.920Z,1.41
2023-03-05T15:36:33.703Z,1.38
2023-03-05T15:38:24.091Z,1.38
2023-03-05T15:40:14.558Z,1.40
2023-03-05T15:42:06.465Z,1.41
2023-03-05T15:43:56.488Z,1.44
2023-03-05T15:45:47.204Z,1.48
2023-03-05T15:47:37.545Z,1.51
2023-03-05T15:49:27.723Z,1.54
2023-03-05T15:51:19.436Z,1.56
2023-03-05T15:53:11.662Z,1.59
2023-03-05T15:55:02.494Z,1.60
2023-03-05T15:56:52.955Z,1.59
2023-03-05T15:58:43.325Z,1.58
2023-03-05T16:00:36.244Z,1.58
2023-03-05T16:02:26.080Z,1.57
2023-03-05T16:04:16.843Z,1.56
2023-03-05T16:06:08.555Z,1.54
2023-03-05T16:07:59.408Z,1.51
2023-03-05T16:09:50.900Z,1.47
2023-03-05T16:11:47.231Z,1.44
2023-03-05T16:13:37.465Z,1.40
2023-03-05T16:15:27.669Z,1.35
2023-03-05T16:17:19.804Z,1.30
2023-03-05T16:19:11.126Z,1.27
2023-03-05T16:21:01.592Z,1.26
2023-03-05T16:22:52.072Z,1.27
2023-03-05T16:24:42.366Z,1.28
2023-03-05T16:26:35.688Z,1.28
2023-03-05T16:28:25.749Z,1.30
2023-03-05T16:30:16.662Z,1.31
2023-03-05T16:32:06.924Z,1.34
2023-03-05T16:33:57.487Z,1.40
2023-03-05T16:35:47.978Z,1.41
2023-03-05T16:37:39.110Z,1.43
2023-03-05T16:39:29.447Z,1.40
2023-03-05T16:41:23.176Z,1.40
2023-03-05T16:43:13.979Z,1.41
2023-03-05T16:45:05.596Z,1.39
2023-03-05T16:46:55.831Z,1.37
2023-03-05T16:48:46.112Z,1.40
2023-03-05T16:50:36.176Z,1.36
2023-03-05T16:52:27.551Z,1.33
2023-03-05T16:54:17.653Z,1.31
2023-03-05T16:56:09.251Z,1.26
2023-03-05T16:57:59.580Z,1.22
2023-03-05T16:59:50.041Z,1.18
2023-03-05T17:01:40.567Z,1.15
2023-03-05T17:03:30.949Z,1.11
2023-03-05T17:05:21.077Z,1.05
2023-03-05T17:07:11.446Z,1.01
2023-03-05T17:09:02.192Z,0.99
2023-03-05T17:10:52.323Z,0.96
2023-03-05T17:12:43.043Z,0.91
2023-03-05T17:14:33.112Z,0.86
2023-03-05T17:16:23.246Z,0.83
2023-03-05T17:18:13.523Z,0.82
2023-03-05T17:20:04.711Z,0.82
2023-03-05T17:21:54.705Z,0.81
2023-03-05T17:23:44.735Z,0.79
2023-03-05T17:25:36.465Z,0.75
2023-03-05T17:27:26.652Z,0.74
2023-03-05T17:29:18.285Z,0.74
2023-03-05T17:31:08.765Z,0.72
2023-03-05T17:32:58.878Z,0.70
2023-03-05T17:34:54.107Z,0.70
2023-03-05T17:36:44.883Z,0.70
2023-03-05T17:38:35.338Z,0.71
2023-03-05T17:40:25.311Z,0.73
2023-03-05T17:42:16.031Z,0.74
2023-03-05T17:44:05.857Z,0.71
2023-03-05T17:45:59.018Z,0.73
2023-03-05T17:47:49.190Z,0.75
2023-03-05T17:49:39.764Z,0.77
2023-03-05T17:51:29.809Z,0.78
2023-03-05T17:53:20.793Z,0.79
2023-03-05T17:55:13.284Z,0.79
2023-03-05T17:57:03.634Z,0.78
2023-03-05T17:58:54.094Z,0.77
2023-03-05T18:00:44.602Z,0.74
2023-03-05T18:02:34.757Z,0.73
2023-03-05T18:04:24.784Z,0.69
2023-03-05T18:06:15.596Z,0.62
2023-03-05T18:08:05.877Z,0.58
2023-03-05T18:09:56.029Z,0.53
2023-03-05T18:11:45.944Z,0.51
2023-03-05T18:13:36.196Z,0.48
2023-03-05T18:15:26.929Z,0.41
2023-03-05T18:17:17.049Z,0.38
2023-03-05T18:19:09.177Z,0.33
2023-03-05T18:20:59.524Z,0.33
2023-03-05T18:22:50.081Z,0.29
2023-03-05T18:24:40.339Z,0.25
2023-03-05T18:26:30.678Z,0.25
2023-03-05T18:28:21.111Z,0.24
2023-03-05T18:30:11.563Z,0.20
2023-03-05T18:32:02.094Z,0.16
2023-03-05T18:33:52.692Z,0.14
2023-03-05T18:35:42.747Z,0.13
2023-03-05T18:37:32.893Z,0.10
2023-03-05T18:39:23.016Z,0.09
2023-03-05T18:41:21.074Z,0.05
2023-03-05T18:43:11.460Z,0.01
2023-03-05T18:45:02.913Z,-0.03
2023-03-05T18:46:53.333Z,-0.05
2023-03-05T18:48:43.497Z,-0.09
2023-03-05T18:50:34.076Z,-0.12
2023-03-05T18:52:24.359Z,-0.15
2023-03-05T18:54:14.589Z,-0.15
2023-03-05T18:56:05.714Z,-0.15
2023-03-05T18:57:56.417Z,-0.15
2023-03-05T18:59:46.577Z,-0.14
2023-03-05T19:01:36.646Z,-0.16
2023-03-05T19:03:27.082Z,-0.20
2023-03-05T19:05:17.777Z,-0.24
2023-03-05T19:07:08.121Z,-0.28
2023-03-05T19:09:51.534Z,-0.32
2023-03-05T19:11:42.331Z,-0.39
2023-03-05T19:13:39.821Z,-0.41
2023-03-05T19:15:30.940Z,-0.41
2023-03-05T19:17:21.263Z,-0.41
2023-03-05T19:19:22.061Z,-0.40
2023-03-05T19:21:12.146Z,-0.40
2023-03-05T19:23:02.233Z,-0.41
2023-03-05T19:24:53.169Z,-0.43
2023-03-05T19:26:43.711Z,-0.43
2023-03-05T19:28:34.140Z,-0.42
2023-03-05T19:30:24.674Z,-0.40
2023-03-05T19:32:16.938Z,-0.39
2023-03-05T19:34:07.791Z,-0.39
2023-03-05T19:35:58.528Z,-0.41
2023-03-05T19:37:48.770Z,-0.39
2023-03-05T19:39:39.441Z,-0.37
2023-03-05T19:41:29.452Z,-0.36
2023-03-05T19:43:19.515Z,-0.36
2023-03-05T19:45:09.636Z,-0.40
2023-03-05T19:46:59.707Z,-0.40
2023-03-05T19:48:49.427Z,-0.41
2023-03-05T19:50:39.856Z,-0.42
2023-03-05T19:52:29.992Z,-0.44
2023-03-05T19:54:21.823Z,-0.46
2023-03-05T19:56:12.456Z,-0.49
2023-03-05T19:58:02.881Z,-0.51
2023-03-05T19:59:53.020Z,-0.52
2023-03-05T20:01:44.913Z,-0.53
2023-03-05T20:03:35.260Z,-0.54
2023-03-05T20:05:26.028Z,-0.54
2023-03-05T20:07:16.508Z,-0.58
2023-03-05T20:09:08.163Z,-0.57
2023-03-05T20:10:58.570Z,-0.62
2023-03-05T20:12:49.912Z,-0.63
2023-03-05T20:14:39.988Z,-0.64
2023-03-05T20:16:32.335Z,-0.66
2023-03-05T20:18:23.018Z,-0.68
2023-03-05T20:20:15.172Z,-0.70
2023-03-05T20:22:05.592Z,-0.69
2023-03-05T20:23:57.476Z,-0.69
2023-03-05T20:25:48.386Z,-0.70
2023-03-05T20:27:40.262Z,-0.69
2023-03-05T20:29:30.427Z,-0.69
2023-03-05T20:31:23.647Z,-0.67
2023-03-05T20:33:13.715Z,-0.66
2023-03-05T20:35:04.514Z,-0.67
2023-03-05T20:36:54.515Z,-0.68
2023-03-05T20:38:45.100Z,-0.67
2023-03-05T20:40:35.063Z,-0.67
2023-03-05T20:42:24.998Z,-0.68
2023-03-05T20:44:15.874Z,-0.66
2023-03-05T20:46:23.521Z,-0.67
2023-03-05T20:48:13.587Z,-0.66
2023-03-05T20:50:05.581Z,-0.65
2023-03-05T20:51:55.877Z,-0.67
2023-03-05T20:53:45.822Z,-0.66
2023-03-05T20:55:35.746Z,-0.68
2023-03-05T20:57:25.913Z,-0.69
2023-03-05T20:59:16.996Z,-0.70
2023-03-05T21:03:09.664Z,-0.66
2023-03-05T21:05:01.052Z,-0.69
2023-03-05T21:06:54.539Z,-0.69
2023-03-05T21:08:46.406Z,-0.69
2023-03-05T21:10:39.046Z,-0.69
2023-03-05T21:12:32.920Z,-0.68
2023-03-05T21:14:24.639Z,-0.66
2023-03-05T21:16:26.177Z,-0.68
2023-03-05T21:18:18.191Z,-0.68
2023-03-05T21:20:15.671Z,-0.66
2023-03-05T21:22:07.262Z,-0.69
2023-03-05T21:23:59.190Z,-0.69
2023-03-05T21:25:51.133Z,-0.69
2023-03-05T21:27:43.216Z,-0.70
2023-03-05T21:29:35.233Z,-0.72
2023-03-05T21:31:27.111Z,-0.71
2023-03-05T21:33:27.343Z,-0.70
2023-03-05T21:35:20.984Z,-0.71
2023-03-05T21:37:12.586Z,-0.71
2023-03-05T21:39:04.453Z,-0.68
2023-03-05T21:40:58.413Z,-0.65
2023-03-05T21:42:50.661Z,-0.65
2023-03-05T21:44:42.488Z,-0.67
2023-03-05T21:46:35.228Z,-0.69
2023-03-05T21:48:27.188Z,-0.72
2023-03-05T21:50:23.804Z,-0.73
2023-03-05T21:52:15.793Z,-0.74
2023-03-05T21:54:09.018Z,-0.74
2023-03-05T21:56:25.480Z,-0.75
2023-03-05T21:58:17.418Z,-0.78
2023-03-05T22:00:11.251Z,-0.78
2023-03-05T22:02:03.526Z,-0.78
2023-03-05T22:03:55.360Z,-0.78
2023-03-05T22:05:47.291Z,-0.77
2023-03-05T22:07:40.064Z,-0.77
2023-03-05T22:09:31.789Z,-0.77
2023-03-05T22:11:23.736Z,-0.76
2023-03-05T22:13:17.916Z,-0.76
2023-03-05T22:15:10.276Z,-0.77
2023-03-05T22:17:03.324Z,-0.77
2023-03-05T22:18:55.390Z,-0.76
2023-03-05T22:20:47.448Z,-0.77
2023-03-05T22:22:39.401Z,-0.76
2023-03-05T22:24:31.392Z,-0.76
2023-03-05T22:26:25.227Z,-0.75
2023-03-05T22:28:17.098Z,-0.75
2023-03-05T22:30:11.132Z,-0.75
2023-03-05T22:32:03.194Z,-0.73
2023-03-05T22:33:54.993Z,-0.73
2023-03-05T22:35:47.409Z,-0.74
2023-03-05T22:37:40.324Z,-0.73
2023-03-05T22:39:32.326Z,-0.75
2023-03-05T22:41:24.207Z,-0.77
2023-03-05T22:43:16.936Z,-0.78
2023-03-05T22:45:09.642Z,-0.78
2023-03-05T22:47:01.521Z,-0.79
2023-03-05T22:48:53.426Z,-0.81
2023-03-05T22:50:45.163Z,-0.83
2023-03-05T22:52:36.523Z,-0.83
2023-03-05T22:54:28.508Z,-0.85
2023-03-05T22:56:20.807Z,-0.86
2023-03-05T22:58:12.317Z,-0.86
2023-03-05T23:00:06.101Z,-0.86
2023-03-05T23:01:57.667Z,-0.86
2023-03-05T23:04:47.680Z,-0.88
2023-03-05T23:06:39.376Z,-0.89
2023-03-05T23:08:31.144Z,-0.89
2023-03-05T23:10:27.024Z,-0.91
2023-03-05T23:12:19.844Z,-0.92
2023-03-05T23:14:11.585Z,-0.93
2023-03-05T23:16:03.412Z,-0.95
2023-03-05T23:17:55.201Z,-0.96
2023-03-05T23:19:47.321Z,-0.97
2023-03-05T23:21:39.230Z,-0.97
2023-03-05T23:23:30.971Z,-0.99
2023-03-05T23:25:28.915Z,-1.00
2023-03-05T23:27:20.907Z,-1.01
2023-03-05T23:29:41.226Z,-1.02
2023-03-05T23:31:33.183Z,-1.03
2023-03-05T23:33:25.300Z,-1.04
2023-03-05T23:35:28.485Z,-1.06
2023-03-05T23:37:19.685Z,-1.09
2023-03-05T23:39:11.149Z,-1.12
2023-03-05T23:41:03.732Z,-1.14
2023-03-05T23:42:55.404Z,-1.17
2023-03-05T23:44:47.339Z,-1.18
2023-03-05T23:46:39.084Z,-1.20
2023-03-05T23:48:31.102Z,-1.22
2023-03-05T23:50:25.709Z,-1.24
2023-03-05T23:52:17.338Z,-1.27
2023-03-05T23:54:08.802Z,-1.29
2023-03-05T23:56:00.395Z,-1.30
2023-03-05T23:57:52.480Z,-1.34
2023-03-05T23:59:43.887Z,-1.34
